createdAt,value
2023-05-16T00:02:47.895Z,6.40
2023-05-16T00:06:51.016Z,6.83
2023-05-16T00:10:53.712Z,6.80
2023-05-16T00:14:57.754Z,6.63
2023-05-16T00:19:00.949Z,6.70
2023-05-16T00:23:03.924Z,7.20
2023-05-16T00:27:06.850Z,7.10
2023-05-16T00:31:11.197Z,7.60
2023-05-16T00:35:13.859Z,7.50
2023-05-16T00:39:16.571Z,9.20
2023-05-16T00:43:19.266Z,7.53
2023-05-16T00:47:23.636Z,7.80
2023-05-16T00:51:29.744Z,9.27
2023-05-16T00:55:32.551Z,8.00
2023-05-16T00:59:35.578Z,7.70
2023-05-16T01:03:40.724Z,7.57
2023-05-16T01:07:45.039Z,7.67
2023-05-16T01:11:53.352Z,8.30
2023-05-16T01:16:06.030Z,8.13
2023-05-16T01:20:15.531Z,8.50
2023-05-16T01:24:25.148Z,8.20
2023-05-16T01:28:29.887Z,8.30
2023-05-16T01:32:32.915Z,8.80
2023-05-16T01:36:42.992Z,9.03
2023-05-16T01:40:49.552Z,10.13
2023-05-16T01:44:58.124Z,9.03
2023-05-16T01:49:07.068Z,8.77
2023-05-16T01:53:16.385Z,9.07
2023-05-16T01:57:19.710Z,8.60
2023-05-16T02:01:26.367Z,8.80
2023-05-16T02:05:29.298Z,8.93
2023-05-16T02:09:32.149Z,8.83
2023-05-16T02:13:35.113Z,8.73
2023-05-16T02:17:39.213Z,8.80
2023-05-16T02:21:41.916Z,9.40
2023-05-16T02:25:44.829Z,9.47
2023-05-16T02:29:47.615Z,8.43
2023-05-16T02:33:51.877Z,9.00
2023-05-16T02:37:55.404Z,9.13
2023-05-16T02:41:58.124Z,8.67
2023-05-16T02:46:01.464Z,9.03
2023-05-16T02:50:06.669Z,9.37
2023-05-16T02:54:09.958Z,9.13
2023-05-16T02:58:13.112Z,8.87
2023-05-16T03:02:18.848Z,11.50
2023-05-16T03:06:23.396Z,10.20
2023-05-16T03:10:26.101Z,8.90
2023-05-16T03:14:29.051Z,9.57
2023-05-16T03:18:31.745Z,9.73
2023-05-16T03:22:35.845Z,9.30
2023-05-16T03:26:38.558Z,8.83
2023-05-16T03:30:42.089Z,9.00
2023-05-16T03:34:44.906Z,9.13
2023-05-16T03:38:48.970Z,8.97
2023-05-16T03:42:51.953Z,8.67
2023-05-16T03:46:55.968Z,9.13
2023-05-16T03:50:59.271Z,9.63
2023-05-16T03:55:06.405Z,9.57
2023-05-16T03:59:09.091Z,10.60
2023-05-16T04:03:11.912Z,8.93
2023-05-16T04:07:14.631Z,10.03
2023-05-16T04:11:18.677Z,10.13
2023-05-16T04:15:21.658Z,9.17
2023-05-16T04:19:24.488Z,9.43
2023-05-16T04:23:27.156Z,9.60
2023-05-16T04:27:31.537Z,9.17
2023-05-16T04:31:34.499Z,9.07
2023-05-16T04:35:37.737Z,10.20
2023-05-16T04:39:40.835Z,9.50
2023-05-16T04:43:45.989Z,9.37
2023-05-16T04:47:52.251Z,9.60
2023-05-16T04:51:54.961Z,9.37
2023-05-16T04:55:57.710Z,9.37
2023-05-16T05:00:01.914Z,9.63
2023-05-16T05:04:05.188Z,10.33
2023-05-16T05:08:07.890Z,9.47
2023-05-16T05:12:11.303Z,9.70
2023-05-16T05:16:15.641Z,8.83
2023-05-16T05:20:20.504Z,9.70
2023-05-16T05:24:23.689Z,9.60
2023-05-16T05:28:26.368Z,8.97
2023-05-16T05:32:31.265Z,10.00
2023-05-16T05:36:34.131Z,9.93
2023-05-16T05:40:36.885Z,8.90
2023-05-16T05:44:39.744Z,8.87
2023-05-16T05:48:44.059Z,10.37
2023-05-16T05:52:47.037Z,8.83
2023-05-16T05:56:49.738Z,9.47
2023-05-16T06:00:52.413Z,8.80
2023-05-16T06:04:56.778Z,9.13
2023-05-16T06:08:59.556Z,9.20
2023-05-16T06:13:02.250Z,9.33
2023-05-16T06:17:05.050Z,10.20
2023-05-16T06:21:09.167Z,8.60
2023-05-16T06:25:11.838Z,10.30
2023-05-16T06:29:14.580Z,10.07
2023-05-16T06:33:19.803Z,9.33
2023-05-16T06:37:23.894Z,9.33
2023-05-16T06:41:27.405Z,9.17
2023-05-16T06:45:30.574Z,9.10
2023-05-16T06:49:33.481Z,9.60
2023-05-16T06:53:38.695Z,7.40
2023-05-16T06:57:41.440Z,7.73
2023-05-16T07:01:44.506Z,7.70
2023-05-16T07:05:47.418Z,8.23
2023-05-16T07:09:51.530Z,6.60
2023-05-16T07:13:54.239Z,9.67
2023-05-16T07:17:57.288Z,9.13
2023-05-16T07:22:00.450Z,10.20
2023-05-16T07:26:05.203Z,9.23
2023-05-16T07:30:09.190Z,9.20
2023-05-16T07:34:13.912Z,8.67
2023-05-16T07:38:16.623Z,10.07
2023-05-16T07:42:20.730Z,10.30
2023-05-16T07:46:26.423Z,9.57
2023-05-16T07:50:29.222Z,9.47
2023-05-16T07:54:32.475Z,10.03
2023-05-16T07:58:36.863Z,9.50
2023-05-16T08:02:39.687Z,10.13
2023-05-16T08:06:42.497Z,9.63
2023-05-16T08:10:45.504Z,10.10
2023-05-16T08:14:49.831Z,10.00
2023-05-16T08:18:53.166Z,10.30
2023-05-16T08:22:56.211Z,11.00
2023-05-16T08:26:59.119Z,10.83
2023-05-16T08:31:03.255Z,10.83
2023-05-16T08:35:06.938Z,10.57
2023-05-16T08:39:11.485Z,11.53
2023-05-16T08:43:14.529Z,12.27
2023-05-16T08:47:21.639Z,12.27
2023-05-16T08:51:26.507Z,13.50
2023-05-16T08:55:29.564Z,12.93
2023-05-16T08:59:32.795Z,12.47
2023-05-16T09:03:38.282Z,12.23
2023-05-16T09:07:41.669Z,13.60
2023-05-16T09:11:44.405Z,13.03
2023-05-16T09:15:47.756Z,12.47
2023-05-16T09:19:54.214Z,13.20
2023-05-16T09:23:57.241Z,13.73
2023-05-16T09:28:01.445Z,12.20
2023-05-16T09:32:11.581Z,11.57
2023-05-16T09:36:16.992Z,11.03
2023-05-16T09:40:21.841Z,11.97
2023-05-16T09:44:24.588Z,10.40
2023-05-16T09:48:28.573Z,11.47
2023-05-16T09:52:34.974Z,10.63
2023-05-16T09:56:50.033Z,10.33
2023-05-16T10:00:53.092Z,10.53
2023-05-16T10:04:55.809Z,9.83
2023-05-16T10:09:02.820Z,8.30
2023-05-16T10:13:07.205Z,9.20
2023-05-16T10:17:13.595Z,8.13
2023-05-16T10:21:18.387Z,7.60
2023-05-16T10:25:27.566Z,8.17
2023-05-16T10:29:37.388Z,7.33
2023-05-16T10:33:47.160Z,7.67
2023-05-16T10:37:50.400Z,7.63
2023-05-16T10:42:00.684Z,7.47
2023-05-16T10:46:09.752Z,6.70
2023-05-16T10:50:12.860Z,7.00
2023-05-16T10:54:18.250Z,6.10
2023-05-16T10:58:26.584Z,6.07
2023-05-16T11:02:34.308Z,5.60
2023-05-16T11:06:45.973Z,6.00
2023-05-16T11:10:48.993Z,5.70
2023-05-16T11:14:55.781Z,5.83
2023-05-16T11:19:06.747Z,5.30
2023-05-16T11:23:27.495Z,6.33
2023-05-16T11:27:31.995Z,6.50
2023-05-16T11:32:27.378Z,6.40
2023-05-16T11:36:32.274Z,7.37
2023-05-16T11:40:35.959Z,6.63
2023-05-16T13:00:38.595Z,4.40
2023-05-16T13:04:41.549Z,4.33
2023-05-16T13:08:44.254Z,4.03
2023-05-16T13:12:47.290Z,3.97
2023-05-16T13:16:51.474Z,5.53
2023-05-16T13:20:54.493Z,4.00
2023-05-16T13:24:57.246Z,3.80
2023-05-16T13:29:02.195Z,3.40
2023-05-16T13:33:06.380Z,3.63
2023-05-16T13:37:09.605Z,5.93
2023-05-16T13:41:12.344Z,3.43
2023-05-16T13:45:15.117Z,2.90
2023-05-16T13:49:19.274Z,3.37
2023-05-16T13:53:21.996Z,2.70
2023-05-16T13:57:24.901Z,3.47
2023-05-16T14:01:28.211Z,3.73
2023-05-16T14:05:32.696Z,2.30
2023-05-16T14:09:39.038Z,2.43
2023-05-16T14:13:42.026Z,3.00
2023-05-16T14:17:44.777Z,2.43
2023-05-16T14:21:49.164Z,3.90
2023-05-16T14:25:52.524Z,2.23
2023-05-16T14:29:56.104Z,2.20
2023-05-16T14:33:59.048Z,1.80
2023-05-16T14:38:03.150Z,2.43
2023-05-16T14:42:08.407Z,1.97
2023-05-16T14:46:12.117Z,1.43
2023-05-16T14:50:20.542Z,1.60
2023-05-16T14:54:25.059Z,1.80
2023-05-16T14:58:29.219Z,1.63
2023-05-16T15:02:32.229Z,1.53
2023-05-16T15:06:35.323Z,1.50
2023-05-16T15:10:39.727Z,1.57
2023-05-16T15:14:42.511Z,1.40
2023-05-16T15:18:45.326Z,1.63
2023-05-16T15:22:48.624Z,3.20
2023-05-16T15:26:52.998Z,4.30
2023-05-16T15:30:55.785Z,1.70
2023-05-16T15:34:58.641Z,2.73
2023-05-16T15:39:01.644Z,2.63
2023-05-16T15:43:05.727Z,2.53
2023-05-16T15:47:08.761Z,2.40
2023-05-16T15:51:12.793Z,1.70
2023-05-16T15:55:16.481Z,2.10
2023-05-16T15:59:21.177Z,2.17
2023-05-16T16:03:24.052Z,2.30
2023-05-16T16:07:26.871Z,2.00
2023-05-16T16:11:29.643Z,2.87
2023-05-16T16:15:36.379Z,2.90
2023-05-16T16:19:42.838Z,2.20
2023-05-16T16:23:45.556Z,1.87
2023-05-16T16:27:48.396Z,2.23
2023-05-16T16:31:53.283Z,2.33
2023-05-16T16:35:56.260Z,4.77
2023-05-16T16:39:59.387Z,1.73
2023-05-16T16:44:02.580Z,3.20
2023-05-16T16:48:09.115Z,4.30
2023-05-16T16:52:12.071Z,4.87
2023-05-16T16:56:14.907Z,3.87
2023-05-16T17:00:18.487Z,3.23
2023-05-16T17:04:22.931Z,2.97
2023-05-16T17:08:25.733Z,4.10
2023-05-16T17:12:28.988Z,5.10
2023-05-16T17:16:32.095Z,3.60
2023-05-16T17:20:36.654Z,1.70
2023-05-16T17:24:39.533Z,2.73
2023-05-16T17:28:42.660Z,2.57
2023-05-16T17:32:46.524Z,3.40
2023-05-16T17:36:50.719Z,1.90
2023-05-16T17:40:53.642Z,4.37
2023-05-16T17:44:56.458Z,3.10
2023-05-16T17:49:00.831Z,2.23
2023-05-16T17:53:05.083Z,10.40
2023-05-16T17:57:08.821Z,3.27
2023-05-16T18:01:13.020Z,2.40
2023-05-16T18:05:16.493Z,2.53
2023-05-16T18:09:21.784Z,4.27
2023-05-16T18:13:25.300Z,3.17
2023-05-16T18:17:28.351Z,3.50
2023-05-16T18:21:31.463Z,3.80
2023-05-16T18:25:35.716Z,3.30
2023-05-16T18:29:38.501Z,4.63
2023-05-16T18:33:41.355Z,2.57
2023-05-16T18:37:44.540Z,5.63
2023-05-16T18:41:49.376Z,3.63
2023-05-16T18:45:52.123Z,4.23
2023-05-16T18:49:54.846Z,13.27
2023-05-16T18:53:57.763Z,7.67
2023-05-16T18:58:02.490Z,5.33
2023-05-16T19:02:05.495Z,3.90
2023-05-16T19:06:08.493Z,3.53
2023-05-16T19:10:11.906Z,4.00
2023-05-16T19:14:16.100Z,5.27
2023-05-16T19:18:19.567Z,4.67
2023-05-16T19:22:22.457Z,5.87
2023-05-16T19:26:25.416Z,4.43
2023-05-16T19:30:31.715Z,5.87
2023-05-16T19:34:35.858Z,4.43
2023-05-16T19:38:39.110Z,3.43
2023-05-16T19:42:43.002Z,3.10
2023-05-16T19:46:47.789Z,5.70
2023-05-16T19:50:51.054Z,3.43
2023-05-16T19:54:53.856Z,4.37
2023-05-16T19:58:56.570Z,3.23
2023-05-16T20:03:01.028Z,4.40
2023-05-16T20:07:03.979Z,7.43
2023-05-16T20:11:06.978Z,4.03
2023-05-16T20:15:11.073Z,5.37
2023-05-16T20:19:18.827Z,2.87
2023-05-16T20:23:21.657Z,3.50
2023-05-16T20:27:24.725Z,3.90
2023-05-16T20:31:27.493Z,2.37
2023-05-16T20:35:31.639Z,2.43
2023-05-16T20:39:34.977Z,2.90
2023-05-16T20:43:37.689Z,3.17
2023-05-16T20:47:40.519Z,3.07
2023-05-16T20:51:44.592Z,2.40
2023-05-16T20:55:48.378Z,2.13
2023-05-16T20:59:51.538Z,4.13
2023-05-16T21:03:54.311Z,2.80
2023-05-16T21:07:58.662Z,2.87
2023-05-16T21:12:01.396Z,3.03
2023-05-16T21:16:04.469Z,3.60
2023-05-16T21:20:09.564Z,1.40
2023-05-16T21:24:14.572Z,3.97
2023-05-16T21:28:17.573Z,2.47
2023-05-16T21:32:20.317Z,2.63
2023-05-16T21:36:23.154Z,2.43
2023-05-16T21:40:28.800Z,4.60
2023-05-16T21:44:32.406Z,2.77
2023-05-16T21:48:35.701Z,4.00
2023-05-16T21:52:39.013Z,3.40
2023-05-16T21:56:43.400Z,3.30
2023-05-16T22:00:46.341Z,3.07
2023-05-16T22:04:49.579Z,3.00
2023-05-16T22:08:53.234Z,5.40
2023-05-16T22:12:57.333Z,2.47
2023-05-16T22:17:00.213Z,3.10
2023-05-16T22:21:02.999Z,2.73
2023-05-16T22:25:06.637Z,3.30
2023-05-16T22:29:10.722Z,3.93
2023-05-16T22:33:13.478Z,3.10
2023-05-16T22:37:16.282Z,4.07
2023-05-16T22:41:18.967Z,3.83
2023-05-16T22:45:23.253Z,2.37
2023-05-16T22:49:26.117Z,3.60
2023-05-16T22:53:28.979Z,3.37
2023-05-16T22:57:31.947Z,3.97
2023-05-16T23:01:37.631Z,1.43
2023-05-16T23:05:40.323Z,4.03
2023-05-16T23:09:43.072Z,3.60
2023-05-16T23:13:45.856Z,3.10
2023-05-16T23:17:50.072Z,4.50
2023-05-16T23:21:52.941Z,3.90
2023-05-16T23:25:55.699Z,2.47
2023-05-16T23:29:58.435Z,2.50
2023-05-16T23:34:02.742Z,2.17
2023-05-16T23:38:05.921Z,3.00
2023-05-16T23:42:09.170Z,3.20
2023-05-16T23:46:11.973Z,3.00
2023-05-16T23:50:17.351Z,2.80
2023-05-16T23:54:20.440Z,2.97
2023-05-16T23:58:23.222Z,1.97
